createdAt,value
2022-12-11T00:00:34.499Z,96111.44
2022-12-11T00:01:37.309Z,96111.06
2022-12-11T00:02:43.552Z,96109.16
2022-12-11T00:03:47.583Z,96109.75
2022-12-11T00:04:50.455Z,96103.31
2022-12-11T00:05:53.334Z,96097.87
2022-12-11T00:06:56.466Z,96092.41
2022-12-11T00:08:00.784Z,96101.03
2022-12-11T00:09:03.774Z,96099.88
2022-12-11T00:10:07.373Z,96098.16
2022-12-11T00:11:13.255Z,96093.09
2022-12-11T00:12:16.015Z,96095.00
2022-12-11T00:13:18.856Z,96093.66
2022-12-11T00:14:21.736Z,96097.59
2022-12-11T00:15:24.495Z,96086.88
2022-12-11T00:16:27.945Z,96087.81
2022-12-11T00:17:30.974Z,96086.59
2022-12-11T00:18:34.054Z,96085.06
2022-12-11T00:19:36.973Z,96087.19
2022-12-11T00:20:39.813Z,96083.94
2022-12-11T00:21:42.891Z,96080.00
2022-12-11T00:22:45.915Z,96074.75
2022-12-11T00:23:48.855Z,96079.53
2022-12-11T00:24:52.232Z,96078.66
2022-12-11T00:25:55.255Z,96088.12
2022-12-11T00:26:58.584Z,96088.31
2022-12-11T00:28:01.620Z,96086.31
2022-12-11T00:29:05.058Z,96085.84
2022-12-11T00:30:08.709Z,96086.13
2022-12-11T00:31:19.308Z,96082.00
2022-12-11T00:32:22.304Z,96073.50
2022-12-11T00:33:27.453Z,96081.13
2022-12-11T00:34:30.465Z,96092.63
2022-12-11T00:35:33.455Z,96085.09
2022-12-11T00:36:36.417Z,96096.34
2022-12-11T00:37:39.378Z,96094.44
2022-12-11T00:38:51.010Z,96089.28
2022-12-11T00:39:53.781Z,96087.25
2022-12-11T00:41:00.303Z,96080.88
2022-12-11T00:42:03.048Z,96080.84
2022-12-11T00:43:06.055Z,96084.09
2022-12-11T00:44:08.854Z,96080.88
2022-12-11T00:45:11.987Z,96079.72
2022-12-11T00:46:15.707Z,96086.50
2022-12-11T00:47:18.784Z,96081.72
2022-12-11T00:48:21.750Z,96089.84
2022-12-11T00:49:24.704Z,96092.34
2022-12-11T00:50:27.863Z,96087.94
2022-12-11T00:51:30.727Z,96082.66
2022-12-11T00:52:33.682Z,96090.03
2022-12-11T00:53:37.467Z,96088.97
2022-12-11T00:54:40.390Z,96090.13
2022-12-11T00:55:44.483Z,96090.13
2022-12-11T00:56:47.671Z,96099.50
2022-12-11T00:57:52.691Z,96097.22
2022-12-11T00:58:55.930Z,96097.47
2022-12-11T00:59:58.807Z,96088.69
2022-12-11T01:01:11.037Z,96084.00
2022-12-11T01:02:14.124Z,96084.19
2022-12-11T01:03:18.157Z,96088.50
2022-12-11T01:05:28.987Z,96092.31
2022-12-11T01:06:35.737Z,96093.84
2022-12-11T01:07:39.039Z,96097.19
2022-12-11T01:08:42.850Z,96086.16
2022-12-11T01:10:04.572Z,96089.53
2022-12-11T01:11:11.364Z,96087.72
2022-12-11T01:12:14.357Z,96090.00
2022-12-11T01:13:17.727Z,96083.59
2022-12-11T01:14:20.534Z,96086.09
2022-12-11T01:15:28.772Z,96088.50
2022-12-11T01:16:31.981Z,96094.28
2022-12-11T01:17:34.920Z,96103.25
2022-12-11T01:18:38.610Z,96106.69
2022-12-11T01:19:41.534Z,96096.03
2022-12-11T01:20:44.408Z,96101.84
2022-12-11T01:21:47.296Z,96103.03
2022-12-11T01:22:53.922Z,96100.44
2022-12-11T01:23:56.983Z,96099.66
2022-12-11T01:25:03.664Z,96095.91
2022-12-11T01:26:15.301Z,96101.66
2022-12-11T01:27:18.249Z,96100.81
2022-12-11T01:28:21.062Z,96102.06
2022-12-11T01:29:23.943Z,96105.00
2022-12-11T01:30:30.867Z,96107.75
2022-12-11T01:31:34.262Z,96109.78
2022-12-11T01:32:37.717Z,96109.94
2022-12-11T01:33:41.041Z,96114.06
2022-12-11T01:34:43.947Z,96110.91
2022-12-11T01:35:46.775Z,96106.50
2022-12-11T01:36:52.136Z,96114.91
2022-12-11T01:37:55.527Z,96110.97
2022-12-11T01:38:58.541Z,96104.03
2022-12-11T01:40:02.101Z,96116.69
2022-12-11T01:41:05.300Z,96113.91
2022-12-11T01:42:16.216Z,96107.56
2022-12-11T01:43:19.562Z,96116.06
2022-12-11T01:44:22.316Z,96106.25
2022-12-11T01:45:46.435Z,96108.56
2022-12-11T01:46:49.392Z,96111.53
2022-12-11T01:47:57.430Z,96105.81
2022-12-11T01:49:02.798Z,96108.84
2022-12-11T01:50:06.082Z,96102.34
2022-12-11T01:51:08.887Z,96109.72
2022-12-11T01:52:20.034Z,96110.28
2022-12-11T01:53:32.764Z,96114.31
2022-12-11T01:54:35.823Z,96103.56
2022-12-11T01:55:43.607Z,96119.25
2022-12-11T01:56:50.629Z,96116.59
2022-12-11T01:57:54.443Z,96123.94
2022-12-11T01:59:03.596Z,96120.41
2022-12-11T02:00:10.739Z,96126.09
2022-12-11T02:01:25.556Z,96123.44
2022-12-11T02:02:31.279Z,96116.13
2022-12-11T02:03:34.409Z,96105.47
2022-12-11T02:04:39.400Z,96111.25
2022-12-11T02:05:42.510Z,96111.22
2022-12-11T02:06:48.575Z,96114.19
2022-12-11T02:07:55.817Z,96106.13
2022-12-11T02:08:58.843Z,96123.72
2022-12-11T02:10:01.749Z,96107.38
2022-12-11T02:11:21.388Z,96114.53
2022-12-11T02:12:58.087Z,96108.63
2022-12-11T02:14:11.297Z,96110.62
2022-12-11T02:15:36.129Z,96109.50
2022-12-11T02:16:54.198Z,96100.53
2022-12-11T02:18:21.969Z,96098.59
2022-12-11T02:19:49.023Z,96106.09
2022-12-11T02:21:03.684Z,96109.75
2022-12-11T02:22:11.845Z,96108.34
2022-12-11T02:23:23.625Z,96107.53
2022-12-11T02:24:48.013Z,96108.06
2022-12-11T02:26:20.374Z,96109.59
2022-12-11T02:27:49.414Z,96109.59
2022-12-11T02:29:02.253Z,96101.59
2022-12-11T02:30:14.244Z,96098.19
2022-12-11T02:31:25.993Z,96111.97
2022-12-11T02:32:44.073Z,96089.53
2022-12-11T02:34:01.745Z,96104.25
2022-12-11T02:35:08.229Z,96106.03
2022-12-11T02:36:14.376Z,96100.41
2022-12-11T02:37:21.384Z,96099.00
2022-12-11T02:38:31.495Z,96105.56
2022-12-11T02:39:38.159Z,96100.16
2022-12-11T02:40:44.308Z,96094.47
2022-12-11T02:41:51.661Z,96096.97
2022-12-11T02:42:58.389Z,96088.19
2022-12-11T02:44:03.779Z,96092.38
2022-12-11T02:45:09.985Z,96093.78
2022-12-11T02:46:14.650Z,96078.19
2022-12-11T02:47:21.589Z,96090.44
2022-12-11T02:48:24.981Z,96079.56
2022-12-11T02:49:29.394Z,96088.50
2022-12-11T02:50:34.209Z,96087.66
2022-12-11T02:51:42.672Z,96088.63
2022-12-11T02:52:48.774Z,96089.94
2022-12-11T02:53:54.913Z,96079.50
2022-12-11T02:54:59.959Z,96087.28
2022-12-11T02:56:13.569Z,96084.66
2022-12-11T02:57:33.853Z,96074.34
2022-12-11T02:58:43.828Z,96079.22
2022-12-11T02:59:47.300Z,96079.50
2022-12-11T03:00:51.109Z,96075.72
2022-12-11T03:01:54.507Z,96073.59
2022-12-11T03:02:58.313Z,96086.69
2022-12-11T03:04:01.267Z,96080.06
2022-12-11T03:05:04.560Z,96074.47
2022-12-11T03:06:10.463Z,96080.16
2022-12-11T03:07:23.766Z,96075.50
2022-12-11T03:08:27.018Z,96067.03
2022-12-11T03:09:30.057Z,96069.72
2022-12-11T03:10:33.215Z,96064.84
2022-12-11T03:11:36.226Z,96061.66
2022-12-11T03:12:42.341Z,96061.06
2022-12-11T03:13:45.280Z,96044.81
2022-12-11T03:14:49.181Z,96064.12
2022-12-11T03:16:38.799Z,96069.66
2022-12-11T03:17:56.740Z,96061.97
2022-12-11T03:19:18.051Z,96071.31
2022-12-11T03:20:34.830Z,96066.25
2022-12-11T03:22:07.455Z,96075.78
2022-12-11T03:23:25.052Z,96068.13
2022-12-11T03:24:52.746Z,96077.47
2022-12-11T03:26:01.772Z,96074.75
2022-12-11T03:27:20.669Z,96063.25
2022-12-11T03:28:42.766Z,96073.72
2022-12-11T03:29:58.605Z,96067.94
2022-12-11T03:31:07.565Z,96064.50
2022-12-11T03:32:15.147Z,96068.75
2022-12-11T03:33:42.440Z,96060.28
2022-12-11T03:34:58.527Z,96062.28
2022-12-11T03:36:09.176Z,96070.97
2022-12-11T03:37:14.237Z,96068.34
2022-12-11T03:38:40.556Z,96069.88
2022-12-11T03:39:50.916Z,96070.75
2022-12-11T03:40:57.556Z,96059.16
2022-12-11T03:42:03.395Z,96067.44
2022-12-11T03:43:07.531Z,96054.63
2022-12-11T03:44:11.652Z,96066.09
2022-12-11T03:45:17.835Z,96067.44
2022-12-11T03:46:25.933Z,96065.88
2022-12-11T03:47:30.296Z,96073.69
2022-12-11T03:48:36.508Z,96070.09
2022-12-11T03:49:43.158Z,96075.97
2022-12-11T03:50:48.785Z,96072.78
2022-12-11T03:51:55.703Z,96079.69
2022-12-11T03:53:01.134Z,96088.03
2022-12-11T03:54:04.371Z,96087.56
2022-12-11T03:55:09.548Z,96081.97
2022-12-11T03:56:16.228Z,96089.69
2022-12-11T03:57:34.069Z,96081.56
2022-12-11T03:58:37.095Z,96080.78
2022-12-11T03:59:40.135Z,96089.38
2022-12-11T04:00:43.444Z,96080.12
2022-12-11T04:01:49.666Z,96080.84
2022-12-11T04:03:13.953Z,96097.00
2022-12-11T04:04:17.506Z,96093.13
2022-12-11T04:05:20.440Z,96094.44
2022-12-11T04:06:23.432Z,96098.41
2022-12-11T04:07:26.441Z,96090.00
2022-12-11T04:08:29.713Z,96099.28
2022-12-11T04:09:33.439Z,96099.22
2022-12-11T04:10:36.613Z,96095.03
2022-12-11T04:11:39.792Z,96099.97
2022-12-11T04:12:42.720Z,96103.69
2022-12-11T04:13:45.605Z,96104.44
2022-12-11T04:15:03.519Z,96099.41
2022-12-11T04:16:06.855Z,96104.03
2022-12-11T04:17:09.795Z,96095.44
2022-12-11T04:18:48.088Z,96094.69
2022-12-11T04:20:10.120Z,96095.75
2022-12-11T04:21:35.125Z,96096.88
2022-12-11T04:23:00.924Z,96110.81
2022-12-11T04:24:16.207Z,96108.50
2022-12-11T04:25:19.219Z,96101.00
2022-12-11T04:26:22.188Z,96094.53
2022-12-11T04:27:43.533Z,96107.47
2022-12-11T04:28:48.333Z,96101.41
2022-12-11T04:29:51.361Z,96121.03
2022-12-11T04:30:54.380Z,96111.56
2022-12-11T04:31:57.664Z,96111.63
2022-12-11T04:33:00.707Z,96109.50
2022-12-11T04:34:03.685Z,96118.69
2022-12-11T04:35:09.543Z,96117.88
2022-12-11T04:36:13.901Z,96127.53
2022-12-11T04:37:16.783Z,96127.59
2022-12-11T04:38:19.830Z,96126.84
2022-12-11T04:39:22.840Z,96119.56
2022-12-11T04:40:25.738Z,96122.41
2022-12-11T04:41:29.016Z,96131.94
2022-12-11T04:42:31.870Z,96135.00
2022-12-11T04:43:35.233Z,96122.63
2022-12-11T04:44:38.087Z,96118.47
2022-12-11T04:45:41.052Z,96123.44
2022-12-11T04:46:44.867Z,96130.03
2022-12-11T04:47:48.169Z,96120.47
2022-12-11T04:48:57.035Z,96124.72
2022-12-11T04:50:00.718Z,96138.59
2022-12-11T04:51:03.660Z,96147.66
2022-12-11T04:52:08.619Z,96148.66
2022-12-11T04:53:11.539Z,96148.72
2022-12-11T04:54:17.685Z,96144.91
2022-12-11T04:55:20.587Z,96139.06
2022-12-11T04:56:23.433Z,96145.00
2022-12-11T04:57:26.559Z,96145.53
2022-12-11T04:58:29.702Z,96148.59
2022-12-11T04:59:33.695Z,96141.91
2022-12-11T05:00:36.537Z,96152.03
2022-12-11T05:01:39.603Z,96154.56
2022-12-11T05:02:43.348Z,96153.19
2022-12-11T05:03:46.703Z,96159.34
2022-12-11T05:04:49.694Z,96162.28
2022-12-11T05:05:54.299Z,96157.88
2022-12-11T05:06:57.052Z,96168.22
2022-12-11T05:08:00.201Z,96169.56
2022-12-11T05:09:03.295Z,96176.28
2022-12-11T05:10:07.093Z,96176.56
2022-12-11T05:11:15.678Z,96167.16
2022-12-11T05:12:18.575Z,96179.25
2022-12-11T05:13:21.515Z,96172.09
2022-12-11T05:14:24.483Z,96172.13
2022-12-11T05:15:27.479Z,96172.09
2022-12-11T05:16:30.513Z,96168.47
2022-12-11T05:17:34.274Z,96171.31
2022-12-11T05:18:37.269Z,96174.87
2022-12-11T05:19:40.949Z,96181.28
2022-12-11T05:20:45.879Z,96183.97
2022-12-11T05:21:48.886Z,96179.09
2022-12-11T05:22:54.843Z,96174.16
2022-12-11T05:23:57.622Z,96172.03
2022-12-11T05:25:00.550Z,96184.38
2022-12-11T05:26:06.383Z,96179.25
2022-12-11T05:27:10.352Z,96175.47
2022-12-11T05:28:13.751Z,96187.78
2022-12-11T05:29:16.585Z,96181.34
2022-12-11T05:30:19.650Z,96185.16
2022-12-11T05:31:25.407Z,96186.84
2022-12-11T05:32:28.957Z,96187.41
2022-12-11T05:33:32.042Z,96178.88
2022-12-11T05:34:35.119Z,96165.81
2022-12-11T05:35:38.028Z,96175.37
2022-12-11T05:36:41.228Z,96167.37
2022-12-11T05:37:44.817Z,96177.66
2022-12-11T05:38:48.493Z,96166.13
2022-12-11T05:39:51.211Z,96179.81
2022-12-11T05:41:00.936Z,96169.50
2022-12-11T05:42:03.942Z,96177.19
2022-12-11T05:43:06.734Z,96162.94
2022-12-11T05:44:13.262Z,96168.34
2022-12-11T05:45:16.099Z,96170.19
2022-12-11T05:46:25.318Z,96175.94
2022-12-11T05:47:28.361Z,96191.00
2022-12-11T05:48:31.207Z,96173.03
2022-12-11T05:49:34.131Z,96172.63
2022-12-11T05:50:40.648Z,96177.75
2022-12-11T05:51:44.106Z,96183.06
2022-12-11T05:52:47.134Z,96173.84
2022-12-11T05:53:51.978Z,96180.75
2022-12-11T05:54:54.768Z,96171.53
2022-12-11T05:56:13.309Z,96171.72
2022-12-11T05:57:16.158Z,96175.59
2022-12-11T05:58:19.782Z,96180.03
2022-12-11T05:59:22.579Z,96186.25
2022-12-11T06:00:25.453Z,96176.28
2022-12-11T06:01:34.910Z,96180.59
2022-12-11T06:02:38.257Z,96188.06
2022-12-11T06:03:41.794Z,96188.44
2022-12-11T06:04:44.766Z,96181.97
2022-12-11T06:05:47.744Z,96192.47
2022-12-11T06:06:50.777Z,96198.88
2022-12-11T06:07:53.740Z,96197.78
2022-12-11T06:08:58.338Z,96208.84
2022-12-11T06:10:01.255Z,96211.47
2022-12-11T06:11:04.790Z,96214.44
2022-12-11T06:12:07.597Z,96221.84
2022-12-11T06:13:10.380Z,96213.78
2022-12-11T06:14:14.172Z,96226.88
2022-12-11T06:15:17.136Z,96231.88
2022-12-11T06:16:21.349Z,96226.28
2022-12-11T06:17:24.208Z,96232.94
2022-12-11T06:18:27.111Z,96250.41
2022-12-11T06:19:33.462Z,96242.66
2022-12-11T06:20:39.874Z,96245.75
2022-12-11T06:21:42.773Z,96253.16
2022-12-11T06:22:45.783Z,96246.72
2022-12-11T06:23:51.662Z,96258.44
2022-12-11T06:24:54.703Z,96248.88
2022-12-11T06:25:57.573Z,96260.41
2022-12-11T06:27:00.422Z,96262.09
2022-12-11T06:28:04.216Z,96264.25
2022-12-11T06:29:10.998Z,96264.84
2022-12-11T06:30:15.338Z,96262.75
2022-12-11T06:31:19.258Z,96262.97
2022-12-11T06:32:22.661Z,96262.97
2022-12-11T06:33:25.865Z,96269.13
2022-12-11T06:34:29.105Z,96263.50
2022-12-11T06:35:31.828Z,96269.72
2022-12-11T06:36:35.145Z,96276.91
2022-12-11T06:37:38.977Z,96278.38
2022-12-11T06:38:42.342Z,96279.03
2022-12-11T06:39:45.375Z,96283.22
2022-12-11T06:40:55.504Z,96279.03
2022-12-11T06:41:58.363Z,96285.50
2022-12-11T06:43:01.155Z,96285.66
2022-12-11T06:44:04.214Z,96287.00
2022-12-11T06:45:07.534Z,96293.62
2022-12-11T06:46:16.596Z,96282.56
2022-12-11T06:47:19.614Z,96292.13
2022-12-11T06:48:23.010Z,96295.28
2022-12-11T06:49:25.977Z,96286.19
2022-12-11T06:50:32.894Z,96292.06
2022-12-11T06:51:35.717Z,96301.09
2022-12-11T06:52:38.739Z,96298.03
2022-12-11T06:53:41.870Z,96294.88
2022-12-11T06:54:44.695Z,96301.09
2022-12-11T06:55:47.496Z,96303.94
2022-12-11T06:56:50.270Z,96310.47
2022-12-11T06:57:53.134Z,96313.75
2022-12-11T06:58:57.335Z,96311.69
2022-12-11T07:00:00.505Z,96302.47
2022-12-11T07:01:04.993Z,96305.09
2022-12-11T07:02:08.067Z,96297.37
2022-12-11T07:03:11.774Z,96302.75
2022-12-11T07:04:14.730Z,96301.44
2022-12-11T07:05:17.823Z,96305.56
2022-12-11T07:06:20.892Z,96304.47
2022-12-11T07:07:23.733Z,96310.66
2022-12-11T07:08:29.407Z,96299.84
2022-12-11T07:09:32.506Z,96305.97
2022-12-11T07:10:35.553Z,96317.66
2022-12-11T07:11:38.338Z,96314.00
2022-12-11T07:12:41.209Z,96314.44
2022-12-11T07:13:44.652Z,96308.28
2022-12-11T07:14:47.505Z,96312.19
2022-12-11T07:15:50.373Z,96312.94
2022-12-11T07:16:53.409Z,96318.88
2022-12-11T07:17:56.335Z,96309.06
2022-12-11T07:18:59.327Z,96316.06
2022-12-11T07:20:02.218Z,96319.94
2022-12-11T07:21:06.544Z,96321.50
2022-12-11T07:22:09.573Z,96321.97
2022-12-11T07:23:12.507Z,96321.91
2022-12-11T07:24:15.723Z,96331.03
2022-12-11T07:25:18.695Z,96339.72
2022-12-11T07:26:22.456Z,96314.16
2022-12-11T07:27:25.852Z,96298.44
2022-12-11T07:28:29.028Z,96327.41
2022-12-11T07:29:31.897Z,96317.34
2022-12-11T07:30:34.835Z,96328.69
2022-12-11T07:31:37.798Z,96324.06
2022-12-11T07:32:42.325Z,96324.59
2022-12-11T07:33:47.503Z,96332.25
2022-12-11T07:34:52.072Z,96331.25
2022-12-11T07:35:55.298Z,96327.37
2022-12-11T07:36:58.446Z,96340.28
2022-12-11T07:38:01.612Z,96343.03
2022-12-11T07:39:04.653Z,96351.81
2022-12-11T07:40:08.257Z,96343.78
2022-12-11T07:41:13.269Z,96349.47
2022-12-11T07:42:16.057Z,96350.47
2022-12-11T07:43:18.999Z,96348.19
2022-12-11T07:44:22.041Z,96345.66
2022-12-11T07:45:26.759Z,96338.44
2022-12-11T07:46:32.710Z,96349.94
2022-12-11T07:47:35.605Z,96352.53
2022-12-11T07:48:40.136Z,96356.88
2022-12-11T07:49:43.335Z,96352.28
2022-12-11T07:50:46.551Z,96357.72
2022-12-11T07:51:49.774Z,96365.16
2022-12-11T07:52:56.730Z,96361.09
2022-12-11T07:54:02.235Z,96370.38
2022-12-11T07:55:05.820Z,96367.78
2022-12-11T07:56:09.309Z,96372.41
2022-12-11T07:57:14.379Z,96381.88
2022-12-11T07:58:17.792Z,96379.59
2022-12-11T07:59:21.344Z,96386.28
2022-12-11T08:00:24.330Z,96391.62
2022-12-11T08:01:29.159Z,96388.78
2022-12-11T08:02:37.510Z,96386.41
2022-12-11T08:03:40.679Z,96378.97
2022-12-11T08:04:43.535Z,96382.13
2022-12-11T08:05:50.488Z,96394.44
2022-12-11T08:06:53.258Z,96395.81
2022-12-11T08:07:56.225Z,96390.66
2022-12-11T08:09:03.704Z,96390.88
2022-12-11T08:10:07.093Z,96383.38
2022-12-11T08:11:14.370Z,96393.91
2022-12-11T08:12:17.296Z,96401.63
2022-12-11T08:13:20.028Z,96395.81
2022-12-11T08:14:22.887Z,96397.44
2022-12-11T08:15:25.657Z,96410.09
2022-12-11T08:16:29.275Z,96401.06
2022-12-11T08:17:38.241Z,96408.97
2022-12-11T08:18:44.996Z,96408.78
2022-12-11T08:19:47.898Z,96421.38
2022-12-11T08:20:50.918Z,96407.72
2022-12-11T08:21:54.099Z,96420.34
2022-12-11T08:22:59.298Z,96421.47
2022-12-11T08:24:02.353Z,96412.44
2022-12-11T08:25:11.964Z,96421.25
2022-12-11T08:26:21.360Z,96419.91
2022-12-11T08:27:24.310Z,96422.53
2022-12-11T08:28:27.446Z,96432.28
2022-12-11T08:29:30.286Z,96426.37
2022-12-11T08:30:33.153Z,96423.81
2022-12-11T08:32:44.021Z,96431.53
2022-12-11T08:33:47.360Z,96437.41
2022-12-11T08:34:51.799Z,96428.41
2022-12-11T08:35:54.730Z,96429.72
2022-12-11T08:36:57.544Z,96422.03
2022-12-11T08:38:00.474Z,96438.72
2022-12-11T08:39:03.417Z,96424.34
2022-12-11T08:40:07.152Z,96439.03
2022-12-11T08:41:15.563Z,96437.44
2022-12-11T08:42:18.498Z,96444.09
2022-12-11T08:43:21.368Z,96447.19
2022-12-11T08:44:26.454Z,96452.06
2022-12-11T08:45:29.307Z,96452.41
2022-12-11T08:46:33.207Z,96450.03
2022-12-11T08:47:36.961Z,96454.84
2022-12-11T08:48:42.508Z,96447.63
2022-12-11T08:49:45.426Z,96447.19
2022-12-11T08:50:48.236Z,96451.50
2022-12-11T08:51:51.240Z,96455.16
2022-12-11T08:52:54.182Z,96445.12
2022-12-11T08:53:59.088Z,96454.81
2022-12-11T08:55:02.192Z,96445.34
2022-12-11T08:56:08.823Z,96453.56
2022-12-11T08:57:11.731Z,96443.31
2022-12-11T08:58:14.516Z,96446.66
2022-12-11T08:59:20.172Z,96450.03
2022-12-11T09:00:23.150Z,96456.22
2022-12-11T09:01:27.211Z,96459.88
2022-12-11T09:02:30.189Z,96466.28
2022-12-11T09:03:33.529Z,96457.75
2022-12-11T09:04:36.276Z,96463.41
2022-12-11T09:05:39.371Z,96456.00
2022-12-11T09:06:42.297Z,96454.50
2022-12-11T09:07:45.850Z,96447.81
2022-12-11T09:08:53.442Z,96456.75
2022-12-11T09:09:56.482Z,96452.41
2022-12-11T09:11:12.963Z,96456.75
2022-12-11T09:12:15.930Z,96455.69
2022-12-11T09:13:19.590Z,96459.56
2022-12-11T09:14:22.729Z,96465.00
2022-12-11T09:15:25.539Z,96467.03
2022-12-11T09:16:29.230Z,96452.13
2022-12-11T09:17:32.355Z,96460.38
2022-12-11T09:18:36.850Z,96455.50
2022-12-11T09:19:39.707Z,96460.31
2022-12-11T09:20:42.710Z,96456.19
2022-12-11T09:21:46.103Z,96456.19
2022-12-11T09:22:52.283Z,96445.91
2022-12-11T09:23:58.732Z,96451.81
2022-12-11T09:25:01.712Z,96465.53
2022-12-11T09:26:06.399Z,96458.03
2022-12-11T09:27:09.238Z,96467.56
2022-12-11T09:28:12.189Z,96459.34
2022-12-11T09:29:15.069Z,96463.41
2022-12-11T09:30:17.995Z,96469.91
2022-12-11T09:31:26.955Z,96473.28
2022-12-11T09:32:30.601Z,96472.28
2022-12-11T09:33:33.413Z,96480.75
2022-12-11T09:34:36.458Z,96476.34
2022-12-11T09:35:39.188Z,96486.87
2022-12-11T09:36:44.625Z,96474.31
2022-12-11T09:37:47.534Z,96481.66
2022-12-11T09:38:50.458Z,96478.06
2022-12-11T09:39:53.586Z,96480.13
2022-12-11T09:40:56.575Z,96487.37
2022-12-11T09:42:22.745Z,96475.78
2022-12-11T09:43:50.300Z,96480.37
2022-12-11T09:44:59.227Z,96486.81
2022-12-11T09:46:05.347Z,96491.72
2022-12-11T09:47:35.636Z,96480.16
2022-12-11T09:48:43.151Z,96484.56
2022-12-11T09:49:48.747Z,96488.94
2022-12-11T09:50:55.419Z,96477.31
2022-12-11T09:52:29.748Z,96482.19
2022-12-11T09:53:36.980Z,96481.66
2022-12-11T09:54:58.053Z,96467.72
2022-12-11T09:56:09.982Z,96472.94
2022-12-11T09:57:24.569Z,96472.94
2022-12-11T09:58:45.660Z,96460.59
2022-12-11T10:00:05.992Z,96469.59
2022-12-11T10:01:16.408Z,96464.91
2022-12-11T10:02:57.082Z,96467.25
2022-12-11T10:04:09.026Z,96456.72
2022-12-11T10:05:27.453Z,96462.66
2022-12-11T10:06:58.940Z,96455.16
2022-12-11T10:08:10.779Z,96454.31
2022-12-11T10:09:39.920Z,96450.22
2022-12-11T10:11:04.507Z,96449.16
2022-12-11T10:12:13.247Z,96451.28
2022-12-11T10:13:18.841Z,96443.63
2022-12-11T10:14:46.176Z,96458.03
2022-12-11T10:16:13.662Z,96456.50
2022-12-11T10:17:21.737Z,96464.44
2022-12-11T10:18:28.409Z,96461.56
2022-12-11T10:19:33.041Z,96475.72
2022-12-11T10:20:39.711Z,96471.56
2022-12-11T10:21:43.308Z,96472.06
2022-12-11T10:22:51.093Z,96478.81
2022-12-11T10:24:01.182Z,96467.66
2022-12-11T10:25:11.107Z,96473.16
2022-12-11T10:26:19.104Z,96481.44
2022-12-11T10:27:28.706Z,96475.78
2022-12-11T10:28:35.614Z,96465.72
2022-12-11T10:29:38.729Z,96482.97
2022-12-11T10:30:56.912Z,96486.06
2022-12-11T10:31:59.874Z,96483.78
2022-12-11T10:33:11.781Z,96488.37
2022-12-11T10:34:33.401Z,96485.69
2022-12-11T10:35:56.065Z,96495.06
2022-12-11T10:37:00.568Z,96483.75
2022-12-11T10:38:20.672Z,96486.06
2022-12-11T10:39:24.258Z,96481.44
2022-12-11T10:40:31.088Z,96471.91
2022-12-11T10:41:44.989Z,96481.97
2022-12-11T10:42:55.028Z,96481.97
2022-12-11T10:43:58.101Z,96479.91
2022-12-11T10:45:04.283Z,96488.09
2022-12-11T10:46:25.377Z,96485.50
2022-12-11T10:47:28.490Z,96495.13
2022-12-11T10:48:34.078Z,96500.59
2022-12-11T10:49:38.986Z,96497.94
2022-12-11T10:50:45.226Z,96503.91
2022-12-11T10:51:48.220Z,96504.38
2022-12-11T10:52:52.016Z,96507.41
2022-12-11T10:54:07.033Z,96503.59
2022-12-11T10:55:27.637Z,96505.66
2022-12-11T10:56:33.031Z,96501.03
2022-12-11T10:57:39.452Z,96496.91
2022-12-11T10:58:50.820Z,96494.84
2022-12-11T10:59:53.770Z,96504.91
2022-12-11T11:01:16.877Z,96493.84
2022-12-11T11:02:40.653Z,96501.03
2022-12-11T11:03:58.461Z,96504.56
2022-12-11T11:05:12.031Z,96511.75
2022-12-11T11:06:22.269Z,96510.47
2022-12-11T11:07:28.705Z,96497.69
2022-12-11T11:08:40.733Z,96503.75
2022-12-11T11:09:43.841Z,96506.66
2022-12-11T11:10:58.773Z,96506.41
2022-12-11T11:12:07.602Z,96517.47
2022-12-11T11:13:14.028Z,96513.31
2022-12-11T11:14:19.857Z,96514.88
2022-12-11T11:15:31.068Z,96505.38
2022-12-11T11:16:37.899Z,96499.72
2022-12-11T11:17:55.693Z,96504.28
2022-12-11T11:18:59.192Z,96493.75
2022-12-11T11:20:13.521Z,96487.53
2022-12-11T11:21:19.324Z,96491.16
2022-12-11T11:22:22.396Z,96484.19
2022-12-11T11:23:26.419Z,96491.84
2022-12-11T11:24:36.745Z,96488.81
2022-12-11T11:25:40.603Z,96488.06
2022-12-11T11:27:12.081Z,96482.94
2022-12-11T11:28:18.143Z,96491.12
2022-12-11T11:29:31.050Z,96483.38
2022-12-11T11:30:45.774Z,96490.88
2022-12-11T11:31:48.725Z,96500.94
2022-12-11T11:33:02.569Z,96491.41
2022-12-11T11:34:11.357Z,96488.63
2022-12-11T11:35:18.315Z,96492.69
2022-12-11T11:36:27.137Z,96499.66
2022-12-11T11:37:34.927Z,96491.22
2022-12-11T11:38:59.075Z,96503.06
2022-12-11T11:40:25.104Z,96498.41
2022-12-11T11:41:35.769Z,96510.44
2022-12-11T11:42:56.406Z,96513.81
2022-12-11T11:44:04.537Z,96515.09
2022-12-11T11:45:21.121Z,96507.88
2022-12-11T11:46:29.657Z,96515.31
2022-12-11T11:47:42.673Z,96515.31
2022-12-11T11:49:04.094Z,96524.28
2022-12-11T11:50:15.621Z,96518.66
2022-12-11T11:51:32.473Z,96518.06
2022-12-11T11:52:47.762Z,96514.47
2022-12-11T11:53:53.452Z,96516.84
2022-12-11T11:55:35.228Z,96517.28
2022-12-11T11:56:39.561Z,96519.34
2022-12-11T11:57:57.619Z,96524.56
2022-12-11T11:59:25.514Z,96515.84
2022-12-11T12:00:33.532Z,96526.94
2022-12-11T12:01:37.045Z,96523.59
2022-12-11T12:02:41.899Z,96532.09
2022-12-11T12:03:47.545Z,96531.31
2022-12-11T12:04:51.561Z,96534.97
2022-12-11T12:06:03.435Z,96539.34
2022-12-11T12:07:33.471Z,96536.72
2022-12-11T12:08:42.348Z,96542.59
2022-12-11T12:10:12.673Z,96547.03
2022-12-11T12:11:37.857Z,96543.44
2022-12-11T12:12:57.098Z,96542.91
2022-12-11T12:14:28.742Z,96544.44
2022-12-11T12:15:52.940Z,96548.53
2022-12-11T12:17:17.835Z,96541.06
2022-12-11T12:18:42.284Z,96536.25
2022-12-11T12:19:51.466Z,96539.66
2022-12-11T12:21:16.209Z,96530.03
2022-12-11T12:22:37.482Z,96537.75
2022-12-11T12:24:05.056Z,96539.56
2022-12-11T12:25:37.262Z,96544.44
2022-12-11T12:27:02.099Z,96543.13
2022-12-11T12:28:37.078Z,96542.38
2022-12-11T12:29:39.930Z,96539.56
2022-12-11T12:31:20.413Z,96545.72
2022-12-11T12:32:33.079Z,96533.13
2022-12-11T12:33:55.336Z,96533.37
2022-12-11T12:35:11.999Z,96524.38
2022-12-11T12:36:28.514Z,96529.28
2022-12-11T12:37:45.718Z,96533.66
2022-12-11T12:38:51.681Z,96519.97
2022-12-11T12:40:11.307Z,96518.91
2022-12-11T12:41:25.179Z,96519.41
2022-12-11T12:42:35.152Z,96522.81
2022-12-11T12:43:56.447Z,96524.28
2022-12-11T12:45:24.217Z,96524.84
2022-12-11T12:46:57.146Z,96529.22
2022-12-11T12:48:00.400Z,96534.88
2022-12-11T12:49:05.700Z,96533.63
2022-12-11T12:50:16.358Z,96539.25
2022-12-11T12:51:19.832Z,96542.59
2022-12-11T12:52:31.854Z,96546.44
2022-12-11T12:53:37.311Z,96558.59
2022-12-11T12:54:42.847Z,96554.19
2022-12-11T12:55:48.506Z,96560.66
2022-12-11T12:56:51.560Z,96565.06
2022-12-11T12:57:58.111Z,96561.94
2022-12-11T12:59:01.195Z,96571.19
2022-12-11T13:00:12.799Z,96577.63
2022-12-11T13:01:25.807Z,96581.22
2022-12-11T13:02:30.699Z,96583.56
2022-12-11T13:03:52.008Z,96585.41
2022-12-11T13:05:07.739Z,96583.28
2022-12-11T13:06:11.308Z,96587.88
2022-12-11T13:07:19.422Z,96589.19
2022-12-11T13:08:27.211Z,96596.16
2022-12-11T13:09:30.197Z,96593.34
2022-12-11T13:10:36.488Z,96599.25
2022-12-11T13:11:39.618Z,96595.38
2022-12-11T13:12:46.400Z,96594.13
2022-12-11T13:14:16.715Z,96600.56
2022-12-11T13:15:40.927Z,96608.22
2022-12-11T13:16:46.087Z,96604.13